createdAt,value
2023-03-29T00:00:36.073Z,57.05
2023-03-29T00:03:17.656Z,56.50
2023-03-29T00:05:46.066Z,57.14
2023-03-29T00:08:15.016Z,57.20
2023-03-29T00:10:43.701Z,57.42
2023-03-29T00:13:11.910Z,57.45
2023-03-29T00:15:42.173Z,57.81
2023-03-29T00:18:10.393Z,57.65
2023-03-29T00:20:38.729Z,57.96
2023-03-29T00:23:07.582Z,57.90
2023-03-29T00:25:35.968Z,58.65
2023-03-29T00:28:04.094Z,58.63
2023-03-29T00:30:32.315Z,58.17
2023-03-29T00:33:00.325Z,58.04
2023-03-29T00:35:28.772Z,58.59
2023-03-29T00:37:58.008Z,58.38
2023-03-29T00:40:26.717Z,58.59
2023-03-29T00:42:56.553Z,58.72
2023-03-29T00:45:30.592Z,58.75
2023-03-29T00:48:03.138Z,59.34
2023-03-29T00:50:43.098Z,59.20
2023-03-29T00:53:34.211Z,59.57
2023-03-29T00:56:14.354Z,59.62
2023-03-29T00:58:49.498Z,59.94
2023-03-29T01:01:34.404Z,60.05
2023-03-29T01:04:18.467Z,60.81
2023-03-29T01:06:58.789Z,60.92
2023-03-29T01:09:30.747Z,60.97
2023-03-29T01:12:05.879Z,61.04
2023-03-29T01:14:39.154Z,60.88
2023-03-29T01:17:07.861Z,60.91
2023-03-29T01:19:42.700Z,61.34
2023-03-29T01:22:39.017Z,61.39
2023-03-29T01:25:36.077Z,61.65
2023-03-29T01:28:08.994Z,61.52
2023-03-29T01:30:51.693Z,61.99
2023-03-29T01:33:25.640Z,62.23
2023-03-29T01:36:01.781Z,62.00
2023-03-29T01:38:30.083Z,62.69
2023-03-29T01:40:57.980Z,62.39
2023-03-29T01:43:43.033Z,62.36
2023-03-29T01:46:33.914Z,62.34
2023-03-29T01:49:11.619Z,62.22
2023-03-29T01:51:46.368Z,62.34
2023-03-29T01:54:20.925Z,62.00
2023-03-29T01:56:50.838Z,62.25
2023-03-29T01:59:23.326Z,62.81
2023-03-29T02:02:01.532Z,62.85
2023-03-29T02:04:34.927Z,62.80
2023-03-29T02:07:05.492Z,62.59
2023-03-29T02:09:37.534Z,62.94
2023-03-29T02:12:08.265Z,62.73
2023-03-29T02:14:36.761Z,63.32
2023-03-29T02:17:28.915Z,63.48
2023-03-29T02:20:19.301Z,63.68
2023-03-29T02:22:55.110Z,63.40
2023-03-29T02:25:24.774Z,63.58
2023-03-29T02:27:53.884Z,63.70
2023-03-29T02:30:25.048Z,63.60
2023-03-29T02:33:22.230Z,64.05
2023-03-29T02:36:01.016Z,63.88
2023-03-29T02:38:31.572Z,62.89
2023-03-29T02:41:02.467Z,62.85
2023-03-29T02:43:33.277Z,63.02
2023-03-29T02:46:03.193Z,62.82
2023-03-29T02:48:32.843Z,63.00
2023-03-29T02:51:06.107Z,63.08
2023-03-29T02:54:01.300Z,64.16
2023-03-29T02:56:30.138Z,64.15
2023-03-29T02:58:57.937Z,63.81
2023-03-29T03:01:26.491Z,63.75
2023-03-29T03:03:54.710Z,63.84
2023-03-29T03:06:23.191Z,63.77
2023-03-29T03:08:51.560Z,63.82
2023-03-29T03:11:19.789Z,63.03
2023-03-29T03:13:47.632Z,62.66
2023-03-29T03:16:15.953Z,61.89
2023-03-29T03:18:46.317Z,61.98
2023-03-29T03:21:15.045Z,61.41
2023-03-29T03:23:42.856Z,62.29
2023-03-29T03:26:11.336Z,61.34
2023-03-29T03:28:40.572Z,60.46
2023-03-29T03:31:16.180Z,60.93
2023-03-29T03:34:02.459Z,60.97
2023-03-29T03:36:56.736Z,60.48
2023-03-29T03:39:24.550Z,60.52
2023-03-29T03:41:53.198Z,60.73
2023-03-29T03:44:21.785Z,60.69
2023-03-29T03:47:01.051Z,59.93
2023-03-29T03:49:29.372Z,59.81
2023-03-29T03:51:57.650Z,59.56
2023-03-29T03:54:25.714Z,59.20
2023-03-29T03:57:16.915Z,58.82
2023-03-29T03:59:50.881Z,59.49
2023-03-29T04:02:27.071Z,59.02
2023-03-29T04:04:55.409Z,58.42
2023-03-29T04:07:31.135Z,59.16
2023-03-29T04:10:17.579Z,59.37
2023-03-29T04:13:12.410Z,60.08
2023-03-29T04:16:01.826Z,59.96
2023-03-29T04:18:31.180Z,59.87
2023-03-29T04:21:00.824Z,59.73
2023-03-29T04:23:30.561Z,59.85
2023-03-29T04:25:58.630Z,59.03
2023-03-29T04:28:45.275Z,59.82
2023-03-29T04:31:18.280Z,59.13
2023-03-29T04:33:53.115Z,59.30
2023-03-29T04:36:21.805Z,58.54
2023-03-29T04:38:52.816Z,58.77
2023-03-29T04:41:21.304Z,58.74
2023-03-29T04:43:58.919Z,59.00
2023-03-29T04:46:31.002Z,58.16
2023-03-29T04:49:26.118Z,58.70
2023-03-29T04:51:55.605Z,58.90
2023-03-29T04:54:28.103Z,58.91
2023-03-29T04:57:12.624Z,58.86
2023-03-29T05:00:00.510Z,58.36
2023-03-29T05:02:51.920Z,58.67
2023-03-29T05:05:21.326Z,58.47
2023-03-29T05:07:51.114Z,57.87
2023-03-29T05:10:24.042Z,57.47
2023-03-29T05:12:54.417Z,57.77
2023-03-29T05:15:24.277Z,57.76
2023-03-29T05:17:52.163Z,57.30
2023-03-29T05:20:20.564Z,57.31
2023-03-29T05:22:49.061Z,57.09
2023-03-29T05:26:05.217Z,57.09
2023-03-29T05:28:39.528Z,56.63
2023-03-29T05:31:16.704Z,56.78
2023-03-29T05:33:48.667Z,56.80
2023-03-29T05:36:19.889Z,56.79
2023-03-29T05:38:53.282Z,56.07
2023-03-29T05:41:29.101Z,55.86
2023-03-29T05:44:35.341Z,56.28
2023-03-29T05:47:14.440Z,55.91
2023-03-29T05:49:42.906Z,56.02
2023-03-29T05:52:14.846Z,55.61
2023-03-29T05:54:43.066Z,55.61
2023-03-29T05:57:13.324Z,55.82
2023-03-29T05:59:42.620Z,55.67
2023-03-29T06:02:12.629Z,55.25
2023-03-29T06:04:45.774Z,55.35
2023-03-29T06:07:26.060Z,54.60
2023-03-29T06:10:29.095Z,54.23
2023-03-29T06:13:12.229Z,54.18
2023-03-29T06:15:40.855Z,54.08
2023-03-29T06:18:11.177Z,53.61
2023-03-29T06:20:39.859Z,53.45
2023-03-29T06:23:13.683Z,52.77
2023-03-29T06:25:41.604Z,53.39
2023-03-29T06:28:09.969Z,52.42
2023-03-29T06:30:38.390Z,52.27
2023-03-29T06:33:07.580Z,51.96
2023-03-29T06:35:59.006Z,51.54
2023-03-29T06:38:31.390Z,51.36
2023-03-29T06:41:07.655Z,50.86
2023-03-29T06:44:07.958Z,51.42
2023-03-29T06:46:43.714Z,50.70
2023-03-29T06:49:12.326Z,50.65
2023-03-29T06:52:03.099Z,50.33
2023-03-29T06:54:31.518Z,50.31
2023-03-29T06:57:05.965Z,50.34
2023-03-29T06:59:35.956Z,50.21
2023-03-29T07:02:38.062Z,49.78
2023-03-29T07:05:13.941Z,49.79
2023-03-29T07:08:00.479Z,48.91
2023-03-29T07:10:42.757Z,50.13
2023-03-29T07:13:43.944Z,49.87
2023-03-29T07:16:16.805Z,50.23
2023-03-29T07:18:58.868Z,49.70
2023-03-29T07:21:53.679Z,49.43
2023-03-29T07:24:25.550Z,49.73
2023-03-29T07:27:03.390Z,48.68
2023-03-29T07:29:33.543Z,49.13
2023-03-29T07:32:01.824Z,48.38
2023-03-29T07:34:44.676Z,47.82
2023-03-29T07:37:37.814Z,47.11
2023-03-29T07:40:16.461Z,46.90
2023-03-29T07:43:09.253Z,47.13
2023-03-29T07:45:37.706Z,46.46
2023-03-29T07:48:10.643Z,45.96
2023-03-29T07:51:08.375Z,46.06
2023-03-29T07:54:00.225Z,45.57
2023-03-29T07:57:03.477Z,45.26
2023-03-29T07:59:43.847Z,45.02
2023-03-29T08:02:18.130Z,44.92
2023-03-29T08:04:49.424Z,45.45
2023-03-29T08:07:21.651Z,44.78
2023-03-29T08:10:10.547Z,44.83
2023-03-29T08:12:58.906Z,44.69
2023-03-29T08:15:35.161Z,44.26
2023-03-29T08:18:03.210Z,44.66
2023-03-29T08:20:32.691Z,44.22
2023-03-29T08:23:03.741Z,43.31
2023-03-29T08:25:52.592Z,42.53
2023-03-29T08:28:21.381Z,42.04
2023-03-29T08:30:53.049Z,42.40
2023-03-29T08:33:21.117Z,41.72
2023-03-29T08:35:58.068Z,41.13
2023-03-29T08:38:31.019Z,40.05
2023-03-29T08:40:59.634Z,40.22
2023-03-29T08:44:09.874Z,40.94
2023-03-29T08:47:07.519Z,40.00
2023-03-29T08:49:44.297Z,39.91
2023-03-29T08:52:37.728Z,39.89
2023-03-29T08:55:38.498Z,39.94
2023-03-29T08:58:42.879Z,39.27
2023-03-29T09:01:11.872Z,38.35
2023-03-29T09:03:54.271Z,37.98
2023-03-29T09:06:34.289Z,37.44
2023-03-29T09:09:29.570Z,37.93
2023-03-29T09:11:59.477Z,38.99
2023-03-29T09:14:43.817Z,38.98
2023-03-29T09:17:30.355Z,39.94
2023-03-29T09:20:39.730Z,39.84
2023-03-29T09:23:29.728Z,39.58
2023-03-29T09:26:31.758Z,40.86
2023-03-29T09:29:44.496Z,41.92
2023-03-29T09:32:22.634Z,41.09
2023-03-29T09:35:18.750Z,41.09
2023-03-29T09:37:51.556Z,41.57
2023-03-29T09:40:25.052Z,41.84
2023-03-29T09:43:08.849Z,41.64
2023-03-29T09:45:41.613Z,40.73
2023-03-29T09:48:15.204Z,40.17
2023-03-29T09:50:51.734Z,39.72
2023-03-29T09:53:22.308Z,38.90
2023-03-29T09:56:11.046Z,38.69
2023-03-29T09:58:47.261Z,38.88
2023-03-29T10:01:17.943Z,38.99
2023-03-29T10:03:53.519Z,37.63
2023-03-29T10:06:27.037Z,37.10
2023-03-29T10:09:00.350Z,37.20
2023-03-29T10:11:38.740Z,37.52
2023-03-29T10:14:18.485Z,38.02
2023-03-29T10:16:47.905Z,36.60
2023-03-29T10:19:22.860Z,36.85
2023-03-29T10:21:54.300Z,36.85
2023-03-29T10:24:24.619Z,37.13
2023-03-29T10:26:56.174Z,37.10
2023-03-29T10:29:26.476Z,37.07
2023-03-29T10:31:55.512Z,37.11
2023-03-29T10:34:26.373Z,36.99
2023-03-29T10:37:03.598Z,36.94
2023-03-29T10:39:34.872Z,36.92
2023-03-29T10:42:04.715Z,36.56
2023-03-29T10:44:36.880Z,37.10
2023-03-29T10:47:17.108Z,36.91
2023-03-29T10:49:51.009Z,36.85
2023-03-29T10:52:19.399Z,36.95
2023-03-29T10:54:49.901Z,37.27
2023-03-29T10:57:34.375Z,37.12
2023-03-29T11:00:19.010Z,36.94
2023-03-29T11:03:05.923Z,37.27
2023-03-29T11:05:47.009Z,37.45
2023-03-29T11:08:24.028Z,37.57
2023-03-29T11:11:10.920Z,38.04
2023-03-29T11:13:45.452Z,37.73
2023-03-29T11:16:24.984Z,37.80
2023-03-29T11:19:07.730Z,37.55
2023-03-29T11:21:56.896Z,36.79
2023-03-29T11:25:03.289Z,36.39
2023-03-29T11:27:43.104Z,36.46
2023-03-29T11:30:22.612Z,36.38
2023-03-29T11:33:25.418Z,36.27
2023-03-29T11:35:56.745Z,36.16
2023-03-29T11:38:37.425Z,36.07
2023-03-29T11:41:18.958Z,36.27
2023-03-29T11:43:55.231Z,35.46
2023-03-29T11:46:28.741Z,35.42
2023-03-29T11:49:10.694Z,35.75
2023-03-29T11:51:45.272Z,36.22
2023-03-29T11:54:19.315Z,35.82
2023-03-29T11:57:07.639Z,35.89
2023-03-29T11:59:54.506Z,36.36
2023-03-29T12:02:34.002Z,36.45
2023-03-29T12:05:11.268Z,37.16
2023-03-29T12:07:50.865Z,37.93
2023-03-29T12:10:31.238Z,37.43
2023-03-29T12:13:31.375Z,34.58
2023-03-29T12:16:26.793Z,31.17
2023-03-29T12:18:58.481Z,29.51
2023-03-29T12:21:30.650Z,29.80
2023-03-29T12:23:59.603Z,29.42
2023-03-29T12:26:47.030Z,29.80
2023-03-29T12:29:29.784Z,29.39
2023-03-29T12:31:57.962Z,31.07
2023-03-29T12:35:04.716Z,32.54
2023-03-29T12:38:22.730Z,33.70
2023-03-29T12:41:21.997Z,34.71
2023-03-29T12:44:28.791Z,35.18
2023-03-29T12:47:02.341Z,34.74
2023-03-29T12:49:34.821Z,35.11
2023-03-29T12:52:08.812Z,34.90
2023-03-29T12:54:37.263Z,34.80
2023-03-29T12:57:27.703Z,35.04
2023-03-29T12:59:56.737Z,34.79
2023-03-29T13:02:36.499Z,35.36
2023-03-29T13:05:05.930Z,35.66
2023-03-29T13:07:47.529Z,34.96
2023-03-29T13:10:55.466Z,32.47
2023-03-29T13:13:44.247Z,32.66
2023-03-29T13:16:16.609Z,32.45
2023-03-29T13:19:08.710Z,32.58
2023-03-29T13:22:08.078Z,32.69
2023-03-29T13:25:06.474Z,32.62
2023-03-29T13:27:53.122Z,32.71
2023-03-29T13:30:24.389Z,33.40
2023-03-29T13:33:27.174Z,33.09
2023-03-29T13:36:06.192Z,31.33
2023-03-29T13:38:46.603Z,30.90
2023-03-29T13:41:48.693Z,31.52
2023-03-29T13:44:27.980Z,30.96
2023-03-29T13:47:16.800Z,30.19
2023-03-29T13:49:56.701Z,29.98
2023-03-29T13:52:48.684Z,30.08
2023-03-29T13:55:33.654Z,29.26
2023-03-29T13:58:24.457Z,29.50
2023-03-29T14:01:18.062Z,30.23
2023-03-29T14:03:48.946Z,30.12
2023-03-29T14:06:24.423Z,29.18
2023-03-29T14:08:53.479Z,34.72
2023-03-29T14:11:25.758Z,37.60
2023-03-29T14:13:55.932Z,39.36
2023-03-29T14:16:28.970Z,40.90
2023-03-29T14:19:00.655Z,41.81
2023-03-29T14:21:29.709Z,42.24
2023-03-29T14:24:02.555Z,42.73
2023-03-29T14:26:34.215Z,42.63
2023-03-29T14:29:03.546Z,43.62
2023-03-29T14:31:38.072Z,44.50
2023-03-29T14:34:13.554Z,44.09
2023-03-29T14:36:45.365Z,43.97
2023-03-29T14:39:18.539Z,44.21
2023-03-29T14:41:51.937Z,44.94
2023-03-29T14:44:26.322Z,45.29
2023-03-29T14:46:56.816Z,45.24
2023-03-29T14:49:25.915Z,45.63
2023-03-29T14:51:55.459Z,46.59
2023-03-29T14:54:33.669Z,48.54
2023-03-29T14:57:07.447Z,50.09
2023-03-29T14:59:35.552Z,50.65
2023-03-29T15:02:04.933Z,50.53
2023-03-29T15:04:34.632Z,50.33
2023-03-29T15:07:05.342Z,50.15
2023-03-29T15:09:35.243Z,50.74
2023-03-29T15:12:04.326Z,51.33
2023-03-29T15:14:34.664Z,51.53
2023-03-29T15:17:23.165Z,51.58
2023-03-29T15:20:10.128Z,51.59
2023-03-29T15:22:40.306Z,51.51
2023-03-29T15:25:17.522Z,51.42
2023-03-29T15:27:50.781Z,52.31
2023-03-29T15:30:19.450Z,52.10
2023-03-29T15:32:47.668Z,51.55
2023-03-29T15:35:24.828Z,51.78
2023-03-29T15:37:53.639Z,52.88
2023-03-29T15:40:26.781Z,52.48
2023-03-29T15:42:55.897Z,52.82
2023-03-29T15:45:23.844Z,52.30
2023-03-29T15:47:52.219Z,52.31
2023-03-29T15:50:20.673Z,52.06
2023-03-29T15:52:49.616Z,52.30
2023-03-29T15:55:18.823Z,52.13
2023-03-29T15:57:49.172Z,52.50
2023-03-29T16:00:21.484Z,52.98
2023-03-29T16:02:51.098Z,52.75
2023-03-29T16:05:20.135Z,52.32
2023-03-29T16:07:48.551Z,51.95
2023-03-29T16:10:16.906Z,52.37
2023-03-29T16:12:45.146Z,52.61
2023-03-29T16:15:18.827Z,52.87
2023-03-29T16:17:47.651Z,53.13
2023-03-29T16:20:20.526Z,52.55
2023-03-29T16:22:49.703Z,53.18
2023-03-29T16:25:23.089Z,52.31
2023-03-29T16:27:54.015Z,53.29
2023-03-29T16:30:21.906Z,53.23
2023-03-29T16:32:50.210Z,54.89
2023-03-29T16:35:38.681Z,57.61
2023-03-29T16:38:08.044Z,58.98
2023-03-29T16:40:36.937Z,60.08
2023-03-29T16:43:05.216Z,56.25
2023-03-29T16:45:33.561Z,56.06
2023-03-29T16:48:01.939Z,55.64
2023-03-29T16:50:30.437Z,55.77
2023-03-29T16:52:58.678Z,56.57
2023-03-29T16:55:26.536Z,56.97
2023-03-29T16:57:54.800Z,56.04
2023-03-29T17:00:23.474Z,55.95
2023-03-29T17:02:51.681Z,56.51
2023-03-29T17:05:19.794Z,57.08
2023-03-29T17:07:48.107Z,57.42
2023-03-29T17:10:15.923Z,58.33
2023-03-29T17:12:44.632Z,58.58
2023-03-29T17:15:12.501Z,58.27
2023-03-29T17:17:41.426Z,58.52
2023-03-29T17:20:12.708Z,57.90
2023-03-29T17:22:41.412Z,57.77
2023-03-29T17:25:10.329Z,57.93
2023-03-29T17:27:38.532Z,57.61
2023-03-29T17:30:07.399Z,57.84
2023-03-29T17:32:36.757Z,57.92
2023-03-29T17:35:05.166Z,57.34
2023-03-29T17:37:33.646Z,57.39
2023-03-29T17:40:01.451Z,57.55
2023-03-29T17:42:31.210Z,57.59
2023-03-29T17:44:59.150Z,57.41
2023-03-29T17:47:27.538Z,57.73
2023-03-29T17:49:55.755Z,57.50
2023-03-29T17:52:25.678Z,57.81
2023-03-29T17:54:54.165Z,58.96
2023-03-29T17:57:22.712Z,59.29
2023-03-29T17:59:50.904Z,58.79
2023-03-29T18:02:23.288Z,60.05
2023-03-29T18:04:52.473Z,58.97
2023-03-29T18:07:20.692Z,58.85
2023-03-29T18:09:48.718Z,59.01
2023-03-29T18:12:19.114Z,58.41
2023-03-29T18:14:49.780Z,58.21
2023-03-29T18:17:18.109Z,58.45
2023-03-29T18:19:48.880Z,58.19
2023-03-29T18:22:20.147Z,57.45
2023-03-29T18:24:49.505Z,57.44
2023-03-29T18:27:18.731Z,57.54
2023-03-29T18:29:46.602Z,57.07
2023-03-29T18:32:15.360Z,57.39
2023-03-29T18:34:43.425Z,57.60
2023-03-29T18:37:17.753Z,57.65
2023-03-29T18:39:48.218Z,57.51
2023-03-29T18:42:16.669Z,56.98
2023-03-29T18:44:44.796Z,56.56
2023-03-29T18:47:13.560Z,56.10
2023-03-29T18:49:42.170Z,55.98
2023-03-29T18:52:10.440Z,56.53
2023-03-29T18:54:38.962Z,57.07
2023-03-29T18:57:08.395Z,57.12
2023-03-29T18:59:36.930Z,56.86
2023-03-29T19:02:05.134Z,57.39
2023-03-29T19:04:35.721Z,57.07
2023-03-29T19:07:03.992Z,57.11
2023-03-29T19:09:32.114Z,56.51
2023-03-29T19:12:00.727Z,56.98
2023-03-29T19:14:31.393Z,57.13
2023-03-29T19:17:01.004Z,57.54
2023-03-29T19:19:28.923Z,57.45
2023-03-29T19:22:00.409Z,56.57
2023-03-29T19:24:30.237Z,56.75
2023-03-29T19:26:58.803Z,56.34
2023-03-29T19:29:26.683Z,57.24
2023-03-29T19:31:57.423Z,57.30
2023-03-29T19:34:25.397Z,56.96
2023-03-29T19:36:55.412Z,56.96
2023-03-29T19:39:23.494Z,56.78
2023-03-29T19:41:51.814Z,56.33
2023-03-29T19:44:20.456Z,56.54
2023-03-29T19:46:50.626Z,55.50
2023-03-29T19:49:19.051Z,55.23
2023-03-29T19:51:48.383Z,53.75
2023-03-29T19:54:17.579Z,54.30
2023-03-29T19:56:46.748Z,53.83
2023-03-29T19:59:15.198Z,54.32
2023-03-29T20:01:51.078Z,53.90
2023-03-29T20:04:21.201Z,53.96
2023-03-29T20:06:49.657Z,54.21
2023-03-29T20:09:17.738Z,53.90
2023-03-29T20:11:55.675Z,54.10
2023-03-29T20:14:27.499Z,54.79
2023-03-29T20:17:05.015Z,54.92
2023-03-29T20:19:36.832Z,54.53
2023-03-29T20:22:05.547Z,54.44
2023-03-29T20:24:34.958Z,54.11
2023-03-29T20:27:04.754Z,54.07
2023-03-29T20:29:33.591Z,53.10
2023-03-29T20:32:02.047Z,53.15
2023-03-29T20:34:30.411Z,53.10
2023-03-29T20:37:01.097Z,53.02
2023-03-29T20:39:31.693Z,53.05
2023-03-29T20:42:00.907Z,53.39
2023-03-29T20:44:29.622Z,52.86
2023-03-29T20:47:05.243Z,52.54
2023-03-29T20:49:38.770Z,52.78
2023-03-29T20:52:15.672Z,52.76
2023-03-29T20:54:45.491Z,52.36
2023-03-29T20:57:19.158Z,52.81
2023-03-29T20:59:49.550Z,52.49
2023-03-29T21:02:21.682Z,52.12
2023-03-29T21:04:52.096Z,53.39
2023-03-29T21:07:22.029Z,52.53
2023-03-29T21:09:50.646Z,52.88
2023-03-29T21:12:21.044Z,53.54
2023-03-29T21:14:49.082Z,53.11
2023-03-29T21:17:17.513Z,52.95
2023-03-29T21:19:45.523Z,52.60
2023-03-29T21:22:14.213Z,52.42
2023-03-29T21:24:42.089Z,52.02
2023-03-29T21:27:10.222Z,52.33
2023-03-29T21:29:38.063Z,52.43
2023-03-29T21:32:06.716Z,51.80
2023-03-29T21:34:34.788Z,52.09
2023-03-29T21:37:04.027Z,52.50
2023-03-29T21:39:33.178Z,51.67
2023-03-29T21:42:01.910Z,51.99
2023-03-29T21:44:31.431Z,52.60
2023-03-29T21:47:01.263Z,52.36
2023-03-29T21:49:29.234Z,52.75
2023-03-29T21:51:57.848Z,53.99
2023-03-29T21:54:26.034Z,53.28
2023-03-29T21:56:55.837Z,54.45
2023-03-29T21:59:23.849Z,54.21
2023-03-29T22:01:53.272Z,53.76
2023-03-29T22:04:33.549Z,53.67
2023-03-29T22:07:05.807Z,53.46
2023-03-29T22:09:35.463Z,53.67
2023-03-29T22:12:05.092Z,52.98
2023-03-29T22:14:37.212Z,53.74
2023-03-29T22:17:06.664Z,53.66
2023-03-29T22:19:42.096Z,53.39
2023-03-29T22:22:14.123Z,53.85
2023-03-29T22:24:42.598Z,53.16
2023-03-29T22:27:11.972Z,53.78
2023-03-29T22:29:40.097Z,55.26
2023-03-29T22:32:11.793Z,55.75
2023-03-29T22:34:40.024Z,54.90
2023-03-29T22:37:09.237Z,55.13
2023-03-29T22:39:38.708Z,55.77
2023-03-29T22:42:07.522Z,56.60
2023-03-29T22:44:35.698Z,57.13
2023-03-29T22:47:04.033Z,57.53
2023-03-29T22:49:32.112Z,59.08
2023-03-29T22:52:01.694Z,58.25
2023-03-29T22:54:30.033Z,60.00
2023-03-29T22:56:59.568Z,59.99
2023-03-29T22:59:28.097Z,60.55
2023-03-29T23:01:56.682Z,63.20
2023-03-29T23:04:24.673Z,64.42
2023-03-29T23:06:53.520Z,64.42
2023-03-29T23:09:21.543Z,65.04
2023-03-29T23:11:49.695Z,67.14
2023-03-29T23:14:19.223Z,68.02
2023-03-29T23:16:48.142Z,69.67
2023-03-29T23:19:16.459Z,67.71
2023-03-29T23:21:45.097Z,68.43
2023-03-29T23:24:13.653Z,67.90
2023-03-29T23:26:42.392Z,67.43
2023-03-29T23:29:10.325Z,66.05
2023-03-29T23:31:38.934Z,63.86
2023-03-29T23:34:11.508Z,61.95
2023-03-29T23:36:39.795Z,61.47
2023-03-29T23:39:09.138Z,60.05
2023-03-29T23:41:40.578Z,59.26
2023-03-29T23:44:08.803Z,58.90
2023-03-29T23:46:37.502Z,59.37
2023-03-29T23:49:05.420Z,58.66
2023-03-29T23:51:35.238Z,57.95
2023-03-29T23:54:03.800Z,58.19
2023-03-29T23:56:32.257Z,57.40
2023-03-29T23:59:00.575Z,57.39
